Willards, Maryland
Current Conditions -  °F | °C
As of 8:54 AM on Tuesday 21 Oct 2014 (Local Time) from KSBY Reporting Station
Overcast Overcast  
Wind Chill: 61°   Ceiling: 8500
Heat Index: 61°   Visibility: 10mi
Dew Point: 56°   Wind: 3mph
Humidity: 83%   Direction: 190°S
Pressure: 29.89"   Gusts: NA
Location:  38.39°N, 75.35°W
Report Text: KSBY 211254Z 19003KT 10SM OVC085 16/13 A2989 RMK AO2 RAB03E13 SLP122 P0000 T01610133
Loading
Personal Weather Stations






























Interactive Weather Map
Tropical Storm Tracking
New forecast layout! Learn more

10-Day Weather Forecast

Advertisements
Track Severe Weather on mobile